createdAt,value
2019-03-29T10:38:24.539Z,1008.33
2019-03-29T10:39:26.017Z,1008.34
2019-03-29T10:40:24.897Z,1008.32
2019-03-29T10:41:22.952Z,1008.25
2019-03-29T10:42:23.054Z,1008.35
2019-03-29T10:43:23.281Z,1008.38
2019-03-29T10:44:23.465Z,1008.37
2019-03-29T10:45:23.564Z,1008.39
2019-03-29T10:46:23.689Z,1008.32
2019-03-29T10:47:40.895Z,1008.29
2019-03-29T10:48:24.026Z,1008.27
2019-03-29T10:49:24.305Z,1008.27
2019-03-29T10:50:24.495Z,1008.29
2019-03-29T10:51:26.526Z,1008.23
2019-03-29T10:52:24.659Z,1008.25
2019-03-29T10:53:24.888Z,1008.19
2019-03-29T10:54:25.809Z,1008.24
2019-03-29T10:55:25.118Z,1008.17
2019-03-29T10:56:34.109Z,1008.12
2019-03-29T10:57:25.461Z,1008.16
2019-03-29T10:58:25.716Z,1008.13
2019-03-29T10:59:27.676Z,1008.16
2019-03-29T11:00:26.211Z,1008.22
2019-03-29T11:01:28.778Z,1008.14
2019-03-29T11:02:26.399Z,1008.13
2019-03-29T11:03:28.683Z,1008.09
2019-03-29T11:04:26.553Z,1008.17
2019-03-29T11:05:26.682Z,1008.12
2019-03-29T11:06:26.865Z,1008.14
2019-03-29T11:07:27.058Z,1008.09
2019-03-29T11:08:27.254Z,1008.04
2019-03-29T11:09:27.416Z,1008.06
2019-03-29T11:10:27.663Z,1008.05
2019-03-29T11:11:28.016Z,1008.01
2019-03-29T11:12:28.803Z,1008.02
2019-03-29T11:13:29.080Z,1007.99
2019-03-29T11:14:29.334Z,1008.02
2019-03-29T11:15:28.557Z,1008.01
2019-03-29T11:16:28.775Z,1007.99
2019-03-29T11:17:28.934Z,1007.96
2019-03-29T11:18:29.859Z,1007.94
2019-03-29T11:19:29.429Z,1007.95
2019-03-29T11:20:29.502Z,1007.92
2019-03-29T11:21:29.694Z,1007.90
2019-03-29T11:22:31.364Z,1007.93
2019-03-29T11:23:30.021Z,1007.92
2019-03-29T11:24:30.203Z,1007.83
2019-03-29T11:25:30.368Z,1007.70
2019-03-29T11:26:30.568Z,1007.93
2019-03-29T11:27:33.185Z,1007.87
2019-03-29T11:28:31.353Z,1007.83
2019-03-29T11:29:32.636Z,1007.85
2019-03-29T11:30:42.191Z,1007.85
2019-03-29T11:31:33.132Z,1007.84
2019-03-29T11:32:32.924Z,1007.83
2019-03-29T11:33:32.710Z,1007.81
2019-03-29T11:34:32.070Z,1007.80
2019-03-29T11:35:32.243Z,1007.75
2019-03-29T11:36:32.410Z,1007.79
2019-03-29T11:37:32.639Z,1007.78
2019-03-29T11:38:32.803Z,1007.77
2019-03-29T11:39:32.979Z,1007.72
2019-03-29T11:40:33.149Z,1007.74
2019-03-29T11:41:33.336Z,1007.67
2019-03-29T11:42:33.534Z,1007.71
2019-03-29T11:43:33.728Z,1007.68
2019-03-29T11:44:33.945Z,1007.66
2019-03-29T11:45:34.133Z,1007.68
2019-03-29T11:46:34.327Z,1007.66
2019-03-29T11:47:34.456Z,1007.61
2019-03-29T11:48:34.676Z,1007.59
2019-03-29T11:49:34.833Z,1007.54
2019-03-29T11:50:35.089Z,1007.51
2019-03-29T11:51:35.270Z,1007.51
2019-03-29T11:52:35.512Z,1007.54
2019-03-29T11:53:35.784Z,1007.55
2019-03-29T11:54:35.874Z,1007.58
2019-03-29T11:55:40.290Z,1007.50
2019-03-29T11:56:39.738Z,1007.52
2019-03-29T11:57:37.007Z,1007.58
2019-03-29T11:58:36.971Z,1007.49
2019-03-29T11:59:40.023Z,1007.51
2019-03-29T12:00:37.839Z,1007.43
2019-03-29T12:01:37.784Z,1007.37
2019-03-29T12:02:38.177Z,1007.39
2019-03-29T12:03:39.430Z,1007.37
2019-03-29T12:04:38.489Z,1007.38
2019-03-29T12:05:38.320Z,1007.35
2019-03-29T12:06:39.625Z,1007.35
2019-03-29T12:07:41.014Z,1007.33
2019-03-29T12:08:39.873Z,1007.28
2019-03-29T12:09:38.461Z,1007.27
2019-03-29T12:10:38.686Z,1007.29
2019-03-29T12:11:38.813Z,1007.26
2019-03-29T12:12:39.018Z,1007.31
2019-03-29T12:13:41.233Z,1007.23
2019-03-29T12:14:40.136Z,1007.22
2019-03-29T12:15:40.086Z,1007.23
2019-03-29T12:16:40.740Z,1007.27
2019-03-29T12:17:40.671Z,1007.22
2019-03-29T12:18:40.406Z,1007.14
2019-03-29T12:19:40.370Z,1007.13
2019-03-29T12:20:40.439Z,1007.01
2019-03-29T12:21:40.591Z,1007.02
2019-03-29T12:22:40.795Z,1006.98
2019-03-29T12:23:40.952Z,1006.96
2019-03-29T12:24:41.123Z,1006.89
2019-03-29T12:25:41.405Z,1006.85
2019-03-29T12:26:41.797Z,1006.79
2019-03-29T12:27:41.644Z,1006.79
2019-03-29T12:28:41.834Z,1006.78
2019-03-29T12:29:42.065Z,1006.72
2019-03-29T12:30:42.265Z,1006.75
2019-03-29T12:31:42.431Z,1006.75
2019-03-29T12:32:42.611Z,1006.68
2019-03-29T12:33:43.453Z,1006.65
2019-03-29T12:34:43.137Z,1006.66
2019-03-29T12:35:43.219Z,1006.60
2019-03-29T12:36:45.919Z,1006.54
2019-03-29T12:37:43.622Z,1006.60
2019-03-29T12:38:43.769Z,1006.60
2019-03-29T12:39:43.964Z,1006.57
2019-03-29T12:40:45.285Z,1006.53
2019-03-29T12:41:44.464Z,1006.55
2019-03-29T12:42:44.948Z,1006.57
2019-03-29T12:43:54.981Z,1006.53
2019-03-29T12:44:44.820Z,1006.54
2019-03-29T12:45:45.046Z,1006.57
2019-03-29T12:46:45.233Z,1006.57
2019-03-29T12:47:45.475Z,1006.49
2019-03-29T12:48:45.563Z,1006.46
2019-03-29T12:49:45.731Z,1006.38
2019-03-29T12:50:45.903Z,1006.40
2019-03-29T12:51:47.045Z,1006.32
2019-03-29T12:52:46.251Z,1006.29
2019-03-29T12:53:46.373Z,1006.29
2019-03-29T12:54:47.614Z,1006.26
2019-03-29T12:55:46.654Z,1006.27
2019-03-29T12:56:46.924Z,1006.28
2019-03-29T12:57:47.146Z,1006.23
2019-03-29T12:58:47.344Z,1006.26
2019-03-29T12:59:47.588Z,1006.22
2019-03-29T13:00:47.688Z,1006.22
2019-03-29T13:01:47.777Z,1006.24
2019-03-29T13:02:48.427Z,1006.22
2019-03-29T13:03:48.121Z,1006.21
2019-03-29T13:04:48.361Z,1006.17
2019-03-29T13:05:48.449Z,1006.15
2019-03-29T13:06:48.528Z,1006.16
2019-03-29T13:07:48.724Z,1006.12
2019-03-29T13:08:48.926Z,1006.12
2019-03-29T13:09:49.267Z,1006.10
2019-03-29T13:10:49.435Z,1006.08
2019-03-29T13:11:49.833Z,1006.11
2019-03-29T13:12:49.733Z,1006.17
2019-03-29T13:13:49.880Z,1006.13
2019-03-29T13:14:49.972Z,1006.07
2019-03-29T13:15:50.128Z,1006.11
2019-03-29T13:16:50.557Z,1006.01
2019-03-29T13:17:50.749Z,1006.06
2019-03-29T13:18:53.568Z,1006.03
2019-03-29T13:19:51.146Z,1006.02
2019-03-29T13:20:51.258Z,1005.98
2019-03-29T13:21:51.409Z,1005.98
2019-03-29T13:22:51.586Z,1005.93
2019-03-29T13:23:51.680Z,1005.89
2019-03-29T13:24:51.891Z,1005.87
2019-03-29T13:25:52.044Z,1005.84
2019-03-29T13:26:54.274Z,1005.82
2019-03-29T13:28:02.822Z,1005.76
2019-03-29T13:29:00.187Z,1005.78
2019-03-29T13:29:52.694Z,1005.75
2019-03-29T13:31:05.132Z,1005.72
2019-03-29T13:31:53.011Z,1005.71
2019-03-29T13:32:54.873Z,1005.65
2019-03-29T13:33:53.483Z,1005.64
2019-03-29T13:34:54.075Z,1005.69
2019-03-29T13:35:56.395Z,1005.70
2019-03-29T13:36:53.935Z,1005.62
2019-03-29T13:37:54.089Z,1005.62
2019-03-29T13:38:54.168Z,1005.64
2019-03-29T13:39:54.716Z,1005.62
2019-03-29T13:40:54.450Z,1005.60
2019-03-29T13:41:55.760Z,1005.59
2019-03-29T13:42:54.877Z,1005.55
2019-03-29T13:43:55.277Z,1005.54
2019-03-29T13:44:55.287Z,1005.57
2019-03-29T13:45:55.763Z,1005.56
2019-03-29T13:46:55.453Z,1005.55
2019-03-29T13:47:55.733Z,1005.50
2019-03-29T13:48:55.762Z,1005.52
2019-03-29T13:49:55.938Z,1005.49
2019-03-29T13:50:59.208Z,1005.51
2019-03-29T13:51:56.284Z,1005.49
2019-03-29T13:52:56.498Z,1005.48
2019-03-29T13:53:56.662Z,1005.50
2019-03-29T13:54:57.852Z,1005.48
2019-03-29T13:55:57.664Z,1005.45
2019-03-29T13:56:57.145Z,1005.42
2019-03-29T13:57:57.271Z,1005.45
2019-03-29T13:58:57.455Z,1005.38
2019-03-29T13:59:57.554Z,1005.40
2019-03-29T14:00:57.596Z,1005.34
2019-03-29T14:01:58.039Z,1005.31
2019-03-29T14:02:58.219Z,1005.28
2019-03-29T14:03:58.187Z,1005.23
2019-03-29T14:04:58.433Z,1005.20
2019-03-29T14:06:00.583Z,1005.23
2019-03-29T14:07:00.201Z,1005.18
2019-03-29T14:08:00.333Z,1005.16
2019-03-29T14:09:01.115Z,1005.16
2019-03-29T14:10:00.544Z,1005.16
2019-03-29T14:11:01.405Z,1005.13
2019-03-29T14:12:04.019Z,1005.15
2019-03-29T14:13:00.489Z,1005.10
2019-03-29T14:14:00.767Z,1005.08
2019-03-29T14:15:01.437Z,1005.07
2019-03-29T14:16:01.951Z,1005.11
2019-03-29T14:17:01.210Z,1005.09
2019-03-29T14:18:01.438Z,1005.08
2019-03-29T14:19:01.788Z,1005.05
2019-03-29T14:20:02.044Z,1005.01
2019-03-29T14:21:03.030Z,1005.02
2019-03-29T14:22:02.705Z,1005.00
2019-03-29T14:23:01.390Z,1004.98
2019-03-29T14:24:02.460Z,1004.97
2019-03-29T14:25:02.986Z,1005.00
2019-03-29T14:26:03.392Z,1004.97
2019-03-29T14:27:02.040Z,1004.94
2019-03-29T14:28:02.329Z,1004.92
2019-03-29T14:29:02.560Z,1004.93
2019-03-29T14:30:04.705Z,1004.89
2019-03-29T14:31:02.652Z,1004.91
2019-03-29T14:32:02.839Z,1004.94
2019-03-29T14:33:03.110Z,1004.95
2019-03-29T14:34:03.288Z,1004.93
2019-03-29T14:35:03.974Z,1004.88
2019-03-29T14:36:03.664Z,1004.89
2019-03-29T14:37:03.839Z,1004.86
2019-03-29T14:38:04.054Z,1004.86
2019-03-29T14:39:05.565Z,1004.82
2019-03-29T14:40:04.483Z,1004.83
2019-03-29T14:41:04.831Z,1004.79
2019-03-29T14:42:04.829Z,1004.75
2019-03-29T14:43:04.984Z,1004.73
2019-03-29T14:44:04.963Z,1004.71
2019-03-29T14:45:05.143Z,1004.69
2019-03-29T14:46:05.336Z,1004.68
2019-03-29T14:47:05.558Z,1004.63
2019-03-29T14:48:05.746Z,1004.64
2019-03-29T14:49:05.948Z,1004.62
2019-03-29T14:50:07.673Z,1004.60
2019-03-29T14:51:06.328Z,1004.59
2019-03-29T14:52:06.445Z,1004.58
2019-03-29T14:53:06.676Z,1004.59
2019-03-29T14:54:06.643Z,1004.55
2019-03-29T14:55:07.042Z,1004.52
2019-03-29T14:56:06.979Z,1004.57
2019-03-29T14:57:07.806Z,1004.54
2019-03-29T14:58:07.285Z,1004.50
2019-03-29T14:59:07.482Z,1004.46
2019-03-29T15:00:07.749Z,1004.46
2019-03-29T15:01:07.835Z,1004.41
2019-03-29T15:02:08.089Z,1004.40
2019-03-29T15:03:08.143Z,1004.44
2019-03-29T15:04:08.314Z,1004.36
2019-03-29T15:05:08.561Z,1004.39
2019-03-29T15:06:08.863Z,1004.32
2019-03-29T15:07:08.795Z,1004.34
2019-03-29T15:08:09.089Z,1004.30
2019-03-29T15:09:09.338Z,1004.30
2019-03-29T15:10:09.480Z,1004.26
2019-03-29T15:11:21.515Z,1004.28
2019-03-29T15:12:09.848Z,1004.29
2019-03-29T15:13:10.115Z,1004.25
2019-03-29T15:14:10.216Z,1004.27
2019-03-29T15:15:10.337Z,1004.27
2019-03-29T15:16:10.699Z,1004.21
2019-03-29T15:17:10.685Z,1004.18
2019-03-29T15:18:10.784Z,1004.18
2019-03-29T15:19:10.904Z,1004.18
2019-03-29T15:20:11.142Z,1004.17
2019-03-29T15:21:11.239Z,1004.16
2019-03-29T15:22:11.408Z,1004.15
2019-03-29T15:23:11.484Z,1004.15
2019-03-29T15:24:11.663Z,1004.12
2019-03-29T15:25:11.880Z,1004.11
2019-03-29T15:26:11.980Z,1004.11
2019-03-29T15:27:12.249Z,1004.10
2019-03-29T15:28:12.337Z,1004.04
2019-03-29T15:29:12.500Z,1004.02
2019-03-29T15:30:12.687Z,1003.98
2019-03-29T15:31:12.900Z,1003.93
2019-03-29T15:32:13.022Z,1003.97
2019-03-29T15:33:13.190Z,1004.00
2019-03-29T15:34:13.474Z,1003.98
2019-03-29T15:35:13.601Z,1003.94
2019-03-29T15:36:13.743Z,1003.97
2019-03-29T15:37:13.991Z,1003.95
2019-03-29T15:38:14.039Z,1003.92
2019-03-29T15:39:15.117Z,1003.94
2019-03-29T15:40:14.476Z,1003.92
2019-03-29T15:41:16.269Z,1003.92
2019-03-29T15:42:14.833Z,1003.92
2019-03-29T15:43:14.857Z,1003.92
2019-03-29T15:44:15.009Z,1003.92
2019-03-29T15:45:20.609Z,1003.90
2019-03-29T15:46:15.370Z,1003.89
2019-03-29T15:47:15.593Z,1003.85
2019-03-29T15:48:15.705Z,1003.85
2019-03-29T15:49:15.802Z,1003.85
2019-03-29T15:50:15.989Z,1003.85
2019-03-29T15:51:16.204Z,1003.87
2019-03-29T15:52:16.383Z,1003.89
2019-03-29T15:53:16.692Z,1003.86
2019-03-29T15:54:16.714Z,1003.85
2019-03-29T15:55:16.810Z,1003.84
2019-03-29T15:56:17.022Z,1003.88
2019-03-29T15:57:17.295Z,1003.85
2019-03-29T15:58:17.342Z,1003.86
2019-03-29T15:59:17.427Z,1003.87
2019-03-29T16:00:17.703Z,1003.82
2019-03-29T16:01:18.572Z,1003.86
2019-03-29T16:02:18.242Z,1003.81
2019-03-29T16:03:18.293Z,1003.79
2019-03-29T16:04:18.486Z,1003.76
2019-03-29T16:05:18.712Z,1003.79
2019-03-29T16:06:18.838Z,1003.80
2019-03-29T16:07:18.883Z,1003.76
2019-03-29T16:08:19.015Z,1003.77
2019-03-29T16:09:19.226Z,1003.80
2019-03-29T16:10:19.335Z,1003.79
2019-03-29T16:11:22.375Z,1003.79
2019-03-29T16:12:20.118Z,1003.79
2019-03-29T16:13:19.973Z,1003.77
2019-03-29T16:14:20.085Z,1003.74
2019-03-29T16:15:33.233Z,1003.76
2019-03-29T16:16:20.447Z,1003.75
2019-03-29T16:17:20.656Z,1003.75
2019-03-29T16:18:20.823Z,1003.72
2019-03-29T16:19:21.035Z,1003.72
2019-03-29T16:20:21.311Z,1003.71
2019-03-29T16:21:21.428Z,1003.74
2019-03-29T16:22:21.488Z,1003.77
2019-03-29T16:23:21.570Z,1003.73
2019-03-29T16:24:22.035Z,1003.75
2019-03-29T16:25:22.614Z,1003.74
2019-03-29T16:26:22.201Z,1003.73
2019-03-29T16:27:24.959Z,1003.69
2019-03-29T16:28:22.520Z,1003.70
2019-03-29T16:29:22.709Z,1003.68
2019-03-29T16:30:22.921Z,1003.72
2019-03-29T16:31:24.568Z,1003.67
2019-03-29T16:32:23.548Z,1003.67
2019-03-29T16:33:23.651Z,1003.66
2019-03-29T16:34:23.542Z,1003.68
2019-03-29T16:35:23.920Z,1003.68
2019-03-29T16:36:24.930Z,1003.66
2019-03-29T16:37:23.943Z,1003.66
2019-03-29T16:38:24.113Z,1003.64
2019-03-29T16:39:24.237Z,1003.64
2019-03-29T16:40:24.776Z,1003.64
2019-03-29T16:41:24.592Z,1003.64
2019-03-29T16:42:24.766Z,1003.65
2019-03-29T16:43:24.954Z,1003.65
2019-03-29T16:44:25.177Z,1003.63
2019-03-29T16:45:25.279Z,1003.62
2019-03-29T16:46:25.488Z,1003.64
2019-03-29T16:47:25.603Z,1003.59
2019-03-29T16:48:25.817Z,1003.60
2019-03-29T16:49:26.116Z,1003.58
2019-03-29T16:50:26.224Z,1003.60
2019-03-29T16:51:26.395Z,1003.55
2019-03-29T16:52:26.567Z,1003.56
2019-03-29T16:53:26.809Z,1003.56
2019-03-29T16:54:26.826Z,1003.54
2019-03-29T16:55:26.983Z,1003.55
2019-03-29T16:56:27.175Z,1003.56
2019-03-29T16:57:28.083Z,1003.55
2019-03-29T16:58:27.476Z,1003.56
2019-03-29T16:59:27.699Z,1003.53
2019-03-29T17:00:27.941Z,1003.55
2019-03-29T17:01:27.933Z,1003.53
2019-03-29T17:02:28.192Z,1003.51
2019-03-29T17:03:28.189Z,1003.54
2019-03-29T17:04:28.408Z,1003.52
2019-03-29T17:05:28.454Z,1003.52
2019-03-29T17:06:28.806Z,1003.49
2019-03-29T17:07:28.840Z,1003.45
2019-03-29T17:08:29.075Z,1003.46
2019-03-29T17:09:29.081Z,1003.45
2019-03-29T17:10:29.280Z,1003.43
2019-03-29T17:11:29.577Z,1003.43
2019-03-29T17:12:30.486Z,1003.47
2019-03-29T17:13:29.867Z,1003.43
2019-03-29T17:14:30.014Z,1003.42
2019-03-29T17:15:30.443Z,1003.42
2019-03-29T17:16:30.904Z,1003.43
2019-03-29T17:17:30.662Z,1003.42
2019-03-29T17:18:32.766Z,1003.42
2019-03-29T17:19:30.762Z,1003.41
2019-03-29T17:20:31.348Z,1003.43
2019-03-29T17:21:31.028Z,1003.41
2019-03-29T17:22:31.226Z,1003.43
2019-03-29T17:23:31.580Z,1003.39
2019-03-29T17:24:32.011Z,1003.41
2019-03-29T17:25:32.708Z,1003.42
2019-03-29T17:26:32.077Z,1003.42
2019-03-29T17:27:32.206Z,1003.40
2019-03-29T17:28:32.271Z,1003.38
2019-03-29T17:29:32.372Z,1003.40
2019-03-29T17:30:32.560Z,1003.40
2019-03-29T17:31:32.778Z,1003.40
2019-03-29T17:32:32.990Z,1003.38
2019-03-29T17:33:33.216Z,1003.37
2019-03-29T17:34:33.812Z,1003.39
2019-03-29T17:35:33.691Z,1003.37
2019-03-29T17:36:33.664Z,1003.39
2019-03-29T17:37:33.888Z,1003.37
2019-03-29T17:38:34.748Z,1003.34
2019-03-29T17:39:34.664Z,1003.35
2019-03-29T17:40:34.218Z,1003.36
2019-03-29T17:41:34.485Z,1003.36
2019-03-29T17:42:34.539Z,1003.35
2019-03-29T17:43:34.834Z,1003.38
2019-03-29T17:44:35.171Z,1003.41
2019-03-29T17:45:35.271Z,1003.36
2019-03-29T17:46:35.439Z,1003.42
2019-03-29T17:47:35.258Z,1003.37
2019-03-29T17:48:35.507Z,1003.35
2019-03-29T17:49:35.552Z,1003.40
2019-03-29T17:50:35.767Z,1003.39
2019-03-29T17:51:35.940Z,1003.38
2019-03-29T17:52:36.142Z,1003.34
2019-03-29T17:53:36.278Z,1003.39
2019-03-29T17:54:36.575Z,1003.41
2019-03-29T17:55:36.900Z,1003.37
2019-03-29T17:56:36.889Z,1003.36
2019-03-29T17:57:36.977Z,1003.35
2019-03-29T17:58:37.282Z,1003.34
2019-03-29T17:59:37.323Z,1003.35
2019-03-29T18:00:37.526Z,1003.38
2019-03-29T18:01:39.275Z,1003.37
2019-03-29T18:02:37.887Z,1003.33
2019-03-29T18:03:38.115Z,1003.40
2019-03-29T18:04:38.376Z,1003.42
2019-03-29T18:05:38.970Z,1003.41
2019-03-29T18:06:38.560Z,1003.35
2019-03-29T18:07:39.182Z,1003.37
2019-03-29T18:08:38.996Z,1003.35
2019-03-29T18:09:39.048Z,1003.33
2019-03-29T18:10:39.196Z,1003.35
2019-03-29T18:11:39.343Z,1003.36
2019-03-29T18:12:41.006Z,1003.36
2019-03-29T18:13:39.623Z,1003.35
2019-03-29T18:14:39.821Z,1003.38
2019-03-29T18:15:40.251Z,1003.39
2019-03-29T18:16:40.225Z,1003.39
2019-03-29T18:17:40.382Z,1003.44
2019-03-29T18:18:40.518Z,1003.42
2019-03-29T18:19:40.688Z,1003.43
2019-03-29T18:20:40.867Z,1003.43
2019-03-29T18:21:40.929Z,1003.44
2019-03-29T18:22:41.237Z,1003.45
2019-03-29T18:23:41.275Z,1003.44
2019-03-29T18:24:41.589Z,1003.45
2019-03-29T18:25:41.740Z,1003.45
2019-03-29T18:26:44.330Z,1003.46
2019-03-29T18:27:41.939Z,1003.43
2019-03-29T18:28:42.355Z,1003.43
2019-03-29T18:29:42.258Z,1003.45
2019-03-29T18:30:42.608Z,1003.46
2019-03-29T18:31:42.741Z,1003.44
2019-03-29T18:32:42.990Z,1003.45
2019-03-29T18:33:42.970Z,1003.41
2019-03-29T18:34:43.781Z,1003.42
2019-03-29T18:35:43.141Z,1003.41
2019-03-29T18:36:43.392Z,1003.41
2019-03-29T18:37:43.469Z,1003.43
2019-03-29T18:38:43.667Z,1003.39
2019-03-29T18:39:43.886Z,1003.41
2019-03-29T18:40:44.066Z,1003.40
2019-03-29T18:41:44.746Z,1003.42
2019-03-29T18:42:44.653Z,1003.42
2019-03-29T18:43:44.633Z,1003.42
2019-03-29T18:44:46.260Z,1003.47
2019-03-29T18:45:45.354Z,1003.46
2019-03-29T18:46:46.222Z,1003.47
2019-03-29T18:47:46.306Z,1003.48
2019-03-29T18:48:46.022Z,1003.48
2019-03-29T18:49:47.770Z,1003.52
2019-03-29T18:50:45.855Z,1003.53
2019-03-29T18:51:45.731Z,1003.51
2019-03-29T18:52:46.404Z,1003.50
2019-03-29T18:53:47.225Z,1003.50
2019-03-29T18:54:46.771Z,1003.52
2019-03-29T18:55:46.592Z,1003.54
2019-03-29T18:56:48.112Z,1003.52
2019-03-29T18:57:47.140Z,1003.53
2019-03-29T18:58:46.737Z,1003.58
2019-03-29T18:59:48.127Z,1003.59
2019-03-29T19:00:48.004Z,1003.58
2019-03-29T19:01:52.228Z,1003.61
2019-03-29T19:02:48.372Z,1003.58
2019-03-29T19:03:48.719Z,1003.64
2019-03-29T19:04:48.113Z,1003.64
2019-03-29T19:05:48.111Z,1003.66
2019-03-29T19:06:48.211Z,1003.68
2019-03-29T19:07:48.189Z,1003.63
2019-03-29T19:08:48.420Z,1003.69
2019-03-29T19:09:48.492Z,1003.69
2019-03-29T19:10:48.666Z,1003.68
2019-03-29T19:11:48.826Z,1003.66
2019-03-29T19:12:48.963Z,1003.68
2019-03-29T19:13:51.967Z,1003.64
2019-03-29T19:14:49.389Z,1003.64
2019-03-29T19:15:49.370Z,1003.64
2019-03-29T19:16:58.796Z,1003.64
2019-03-29T19:17:49.518Z,1003.66
2019-03-29T19:18:49.850Z,1003.64
2019-03-29T19:19:49.917Z,1003.68
2019-03-29T19:20:50.153Z,1003.68
2019-03-29T19:21:50.244Z,1003.69
2019-03-29T19:22:50.467Z,1003.74
2019-03-29T19:23:50.632Z,1003.69
2019-03-29T19:24:50.877Z,1003.71
2019-03-29T19:25:50.845Z,1003.72
2019-03-29T19:26:51.025Z,1003.73
2019-03-29T19:27:51.227Z,1003.74
2019-03-29T19:28:51.346Z,1003.72
2019-03-29T19:29:51.494Z,1003.66
2019-03-29T19:30:55.633Z,1003.70
2019-03-29T19:31:55.251Z,1003.70
2019-03-29T19:32:52.582Z,1003.69
2019-03-29T19:33:52.848Z,1003.66
2019-03-29T19:34:53.086Z,1003.67
2019-03-29T19:35:53.116Z,1003.70
2019-03-29T19:36:52.878Z,1003.71
2019-03-29T19:37:52.737Z,1003.69
2019-03-29T19:38:52.983Z,1003.71
2019-03-29T19:39:53.145Z,1003.66
2019-03-29T19:40:53.295Z,1003.67
2019-03-29T19:41:53.492Z,1003.66
2019-03-29T19:42:53.580Z,1003.66
2019-03-29T19:43:53.801Z,1003.65
2019-03-29T19:44:54.122Z,1003.65
2019-03-29T19:45:54.220Z,1003.68
2019-03-29T19:46:54.493Z,1003.66
2019-03-29T19:47:54.591Z,1003.66
2019-03-29T19:48:55.118Z,1003.65
2019-03-29T19:49:56.051Z,1003.61
2019-03-29T19:50:55.900Z,1003.64
2019-03-29T19:51:56.106Z,1003.62
2019-03-29T19:52:56.046Z,1003.63
2019-03-29T19:54:06.672Z,1003.62
2019-03-29T19:54:56.841Z,1003.58
2019-03-29T19:55:57.619Z,1003.63
2019-03-29T19:56:56.838Z,1003.61
2019-03-29T19:57:56.931Z,1003.59
2019-03-29T19:58:57.033Z,1003.57
2019-03-29T19:59:58.028Z,1003.58
2019-03-29T20:00:56.840Z,1003.59
2019-03-29T20:01:57.093Z,1003.59
2019-03-29T20:02:56.941Z,1003.57
2019-03-29T20:03:57.400Z,1003.55
2019-03-29T20:04:57.221Z,1003.58
2019-03-29T20:05:57.346Z,1003.61
2019-03-29T20:06:57.971Z,1003.61
2019-03-29T20:07:58.626Z,1003.64
2019-03-29T20:09:01.099Z,1003.66
2019-03-29T20:09:58.674Z,1003.66
2019-03-29T20:10:58.367Z,1003.64
2019-03-29T20:11:59.090Z,1003.66
2019-03-29T20:12:58.584Z,1003.62
2019-03-29T20:13:58.955Z,1003.61
2019-03-29T20:14:59.259Z,1003.62
2019-03-29T20:15:59.085Z,1003.62
2019-03-29T20:16:58.952Z,1003.58
2019-03-29T20:18:00.037Z,1003.59
2019-03-29T20:18:59.720Z,1003.60
2019-03-29T20:20:00.768Z,1003.59
2019-03-29T20:21:00.457Z,1003.56
2019-03-29T20:22:01.399Z,1003.59
2019-03-29T20:23:01.956Z,1003.53
2019-03-29T20:24:00.046Z,1003.51
2019-03-29T20:25:00.282Z,1003.45
2019-03-29T20:26:00.295Z,1003.50
2019-03-29T20:27:01.006Z,1003.49
2019-03-29T20:28:00.669Z,1003.48
2019-03-29T20:29:00.958Z,1003.49
2019-03-29T20:30:01.459Z,1003.49
2019-03-29T20:31:01.513Z,1003.48
2019-03-29T20:32:03.148Z,1003.48
2019-03-29T20:33:02.275Z,1003.46
2019-03-29T20:34:02.641Z,1003.48
2019-03-29T20:35:02.212Z,1003.44
2019-03-29T20:36:03.040Z,1003.47
2019-03-29T20:37:02.656Z,1003.43
2019-03-29T20:38:03.248Z,1003.46
2019-03-29T20:39:02.818Z,1003.45
2019-03-29T20:40:04.501Z,1003.43
2019-03-29T20:41:03.477Z,1003.44
2019-03-29T20:42:04.369Z,1003.38
2019-03-29T20:43:03.797Z,1003.40
2019-03-29T20:44:03.669Z,1003.37
2019-03-29T20:45:04.169Z,1003.37
2019-03-29T20:46:04.495Z,1003.37
2019-03-29T20:47:05.349Z,1003.40
2019-03-29T20:48:04.733Z,1003.40
2019-03-29T20:49:04.950Z,1003.41
2019-03-29T20:50:05.191Z,1003.38
2019-03-29T20:51:04.804Z,1003.40
2019-03-29T20:52:04.766Z,1003.38
2019-03-29T20:53:05.406Z,1003.40
2019-03-29T20:54:08.247Z,1003.37
2019-03-29T20:55:05.482Z,1003.39
2019-03-29T20:56:06.755Z,1003.39
2019-03-29T20:57:05.893Z,1003.41
2019-03-29T20:58:06.173Z,1003.40
2019-03-29T20:59:06.890Z,1003.40
2019-03-29T21:00:08.098Z,1003.39
2019-03-29T21:01:06.321Z,1003.37
2019-03-29T21:02:25.686Z,1003.41
2019-03-29T21:08:04.106Z,1003.39
2019-03-29T21:09:04.083Z,1003.36
2019-03-29T21:10:03.399Z,1003.39
2019-03-29T21:11:03.391Z,1003.38
2019-03-29T21:12:03.760Z,1003.37
2019-03-29T21:13:07.101Z,1003.33
2019-03-29T21:14:04.068Z,1003.34
2019-03-29T21:15:04.345Z,1003.36
2019-03-29T21:16:04.100Z,1003.34
2019-03-29T21:17:04.206Z,1003.37
2019-03-29T21:18:04.586Z,1003.36
2019-03-29T21:19:04.534Z,1003.36
2019-03-29T21:20:05.463Z,1003.42
2019-03-29T21:21:06.070Z,1003.40
2019-03-29T21:22:05.849Z,1003.40
2019-03-29T21:23:06.395Z,1003.39
2019-03-29T21:24:05.679Z,1003.36
2019-03-29T21:25:05.942Z,1003.36
2019-03-29T21:26:06.149Z,1003.38
2019-03-29T21:27:06.239Z,1003.36
2019-03-29T21:28:06.307Z,1003.36
2019-03-29T21:29:06.630Z,1003.38
2019-03-29T21:30:06.671Z,1003.34
2019-03-29T21:31:06.858Z,1003.34
2019-03-29T21:32:06.997Z,1003.36
2019-03-29T21:33:07.003Z,1003.36
2019-03-29T21:34:10.428Z,1003.35
2019-03-29T21:35:08.444Z,1003.35
2019-03-29T21:36:08.776Z,1003.35
2019-03-29T21:37:08.893Z,1003.37
2019-03-29T21:38:08.250Z,1003.40
2019-03-29T21:39:09.705Z,1003.36
2019-03-29T21:40:08.833Z,1003.36
2019-03-29T21:41:09.778Z,1003.32
2019-03-29T21:42:10.595Z,1003.36
2019-03-29T21:43:09.410Z,1003.35
2019-03-29T21:44:11.256Z,1003.35
2019-03-29T21:45:09.125Z,1003.33
2019-03-29T21:46:09.927Z,1003.36
2019-03-29T21:47:10.165Z,1003.32
2019-03-29T21:48:27.886Z,1003.35
2019-03-29T21:49:10.455Z,1003.34
2019-03-29T21:50:11.587Z,1003.33
2019-03-29T21:51:09.844Z,1003.32
2019-03-29T21:52:11.296Z,1003.34
2019-03-29T21:53:12.768Z,1003.32
2019-03-29T21:54:12.607Z,1003.37
2019-03-29T21:55:10.601Z,1003.39
2019-03-29T21:56:10.845Z,1003.37
2019-03-29T21:57:11.338Z,1003.37
2019-03-29T21:58:12.475Z,1003.37
2019-03-29T21:59:11.998Z,1003.38
2019-03-29T22:00:16.851Z,1003.38
2019-03-29T22:01:15.294Z,1003.38
2019-03-29T22:02:12.622Z,1003.38
2019-03-29T22:03:11.697Z,1003.39
2019-03-29T22:04:12.573Z,1003.38
2019-03-29T22:05:11.761Z,1003.38
2019-03-29T22:06:11.941Z,1003.41
2019-03-29T22:07:13.001Z,1003.42
2019-03-29T22:08:13.107Z,1003.37
2019-03-29T22:09:13.990Z,1003.37
2019-03-29T22:10:12.481Z,1003.36
2019-03-29T22:11:15.215Z,1003.36
2019-03-29T22:12:13.778Z,1003.36
2019-03-29T22:13:13.540Z,1003.34
2019-03-29T22:14:13.221Z,1003.30
2019-03-29T22:15:13.381Z,1003.32
2019-03-29T22:16:13.495Z,1003.27
2019-03-29T22:17:13.984Z,1003.28
2019-03-29T22:18:13.972Z,1003.26
2019-03-29T22:19:13.975Z,1003.24
2019-03-29T22:20:15.966Z,1003.26
2019-03-29T22:21:15.464Z,1003.23
2019-03-29T22:22:14.898Z,1003.25
2019-03-29T22:23:14.599Z,1003.25
2019-03-29T22:24:14.800Z,1003.24
2019-03-29T22:25:15.034Z,1003.19
2019-03-29T22:26:15.105Z,1003.18
2019-03-29T22:27:15.316Z,1003.18
2019-03-29T22:28:15.431Z,1003.17
2019-03-29T22:29:15.552Z,1003.18
2019-03-29T22:30:15.865Z,1003.16
2019-03-29T22:31:16.030Z,1003.17
2019-03-29T22:32:16.474Z,1003.17
2019-03-29T22:33:16.354Z,1003.17
2019-03-29T22:34:16.614Z,1003.13
2019-03-29T22:35:16.801Z,1003.14
2019-03-29T22:36:16.983Z,1003.14
2019-03-29T22:37:17.072Z,1003.14
2019-03-29T22:38:17.638Z,1003.11
2019-03-29T22:39:17.238Z,1003.13
2019-03-29T22:40:17.492Z,1003.12
2019-03-29T22:41:17.571Z,1003.10
2019-03-29T22:42:17.784Z,1003.08
2019-03-29T22:43:17.936Z,1003.05
2019-03-29T22:44:18.086Z,1003.05
2019-03-29T22:45:21.987Z,1003.05
2019-03-29T22:46:19.107Z,1003.01
2019-03-29T22:47:19.330Z,1003.00
2019-03-29T22:48:20.190Z,1003.05
2019-03-29T22:49:18.971Z,1003.02
2019-03-29T22:50:19.244Z,1003.06